Malaysia Virtual Airlines Airport Information Service

Tioman

ICAO: WMBT Country: Malaysia
Latitude: 2.81789 Longitude: 104.159
Latest Arrival : J8108 (WMSA-WMBT) Latest Departure : J8107 (WMBT-WMSA)


WX CaptureLIVE
Data provided by noaa.gov | Fetched at 06:02:27

METAR :

TAF : WMBT 290500Z 2906/3006 VRB03KT 9999 FEW020


Runway Data for WMBT
Data provided by openaviationdata.com

Runway ID Mag Var Hdg Length Elevation Surface ILS Freq ILS Id ILS Slope
2 0 20° 3255 ft 179 ft Tarmac -- -- --
20 0 200° 3255 ft 179 ft Tarmac -- -- --

Tioman, Malaysia
Use only for reference purposes



Not for navigational purposes.